Mt Baker
Mt. Baker Ski Area
Latest observation 08/31 20:00 PDT
| Time (PDT) | Temp °F 5020' | Temp °F 4210' | RH % 5020' | RH % 4210' | Min mph 5020' | Spd mph 5020' | Gust mph 5020' | Dir ° 5020' | Pcp1 in 4210' | PcpSum in 4210' | 24Sno in 4210' | SnoHt in 4210' | SR W/m² 5020' |
|---|---|---|---|---|---|---|---|---|---|---|---|---|---|
| 08/31 20:00 | 60 | 59 | 52 | 66 | 0 | 5 | 9 | 180 | 0.00 | 0.82 | 61.4 | 7.2 | 16 |
| 08/31 19:00 | 62 | 62 | 51 | 59 | 1 | 6 | 11 | 198 | 0.00 | 0.82 | 48.5 | 7.2 | 168 |
| 08/31 18:00 | 63 | 66 | 49 | 45 | 4 | 9 | 15 | 193 | 0.00 | 0.82 | 46.6 | 7.8 | 358 |
| 08/31 17:00 | 61 | 66 | 51 | 44 | 5 | 11 | 18 | 191 | 0.00 | 0.82 | 45.3 | 7.7 | 434 |
| 08/31 16:00 | 62 | 68 | 47 | 40 | 7 | 14 | 21 | 191 | 0.00 | 0.82 | 43.2 | 8.0 | 689 |
| 08/31 15:00 | 61 | 66 | 49 | 42 | 9 | 16 | 24 | 194 | 0.00 | 0.82 | 41.6 | 7.6 | 797 |
| 08/31 14:00 | 60 | 65 | 55 | 47 | 6 | 15 | 23 | 196 | 0.00 | 0.82 | 40.0 | 7.9 | 819 |
| 08/31 13:00 | 58 | 64 | 57 | 49 | 9 | 16 | 23 | 190 | 0.00 | 0.82 | 36.6 | 7.5 | 842 |
| 08/31 12:00 | 59 | 63 | 58 | 51 | 1 | 8 | 19 | 186 | 0.00 | 0.82 | 32.8 | 7.9 | 790 |
| 08/31 11:00 | 57 | 60 | 61 | 53 | 6 | 11 | 17 | 189 | 0.00 | 0.82 | 31.0 | 7.8 | 590 |
| 08/31 10:00 | 55 | 59 | 61 | 55 | 8 | 14 | 20 | 189 | 0.00 | 0.82 | 30.9 | 8.6 | 495 |
| 08/31 09:00 | 53 | 56 | 65 | 61 | 5 | 11 | 18 | 175 | 0.00 | 0.82 | 31.1 | 8.2 | 250 |
| 08/31 08:00 | 53 | 52 | 64 | 72 | 6 | 12 | 18 | 164 | 0.00 | 0.82 | 32.4 | 7.8 | 126 |
| 08/31 07:00 | 50 | 48 | 71 | 75 | 0 | 5 | 12 | 168 | 0.00 | 0.82 | 32.0 | 7.5 | 18 |
| 08/31 06:00 | 48 | 46 | 78 | 81 | 0 | 0 | 0 | 15 | 0.00 | 0.82 | 32.6 | 7.3 | 0 |
| 08/31 05:00 | 47 | 45 | 80 | 86 | 0 | 0 | 2 | 20 | 0.00 | 0.82 | 33.0 | 7.4 | 0 |
| 08/31 04:00 | 45 | 43 | 85 | 91 | 0 | 2 | 4 | 51 | 0.00 | 0.82 | 33.2 | 7.0 | 0 |
| 08/31 03:00 | 44 | 44 | 86 | 90 | 0 | 3 | 6 | 40 | 0.00 | 0.82 | 33.1 | 7.1 | 0 |
| 08/31 02:00 | 43 | 44 | 92 | 91 | 0 | 2 | 5 | 340 | 0.00 | 0.82 | 33.3 | 7.3 | 0 |
| 08/31 01:00 | 44 | 45 | 91 | 87 | 0 | 3 | 8 | 252 | 0.00 | 0.82 | 33.0 | 6.8 | 0 |
| 08/31 00:00 | 43 | 45 | 96 | 87 | 0 | 3 | 8 | 168 | 0.00 | 0.82 | 33.0 | 7.0 | 0 |
| 08/30 23:00 | 42 | 46 | 98 | 87 | 5 | 8 | 11 | 193 | 0.00 | 0.82 | 38.9 | 6.8 | 0 |
| 08/30 22:00 | 42 | 46 | 100 | 88 | 6 | 8 | 12 | 168 | 0.00 | 0.82 | 45.1 | 6.5 | 0 |
| 08/30 21:00 | 42 | 46 | 100 | 90 | 4 | 6 | 9 | 161 | 0.00 | 0.82 | 44.1 | 6.6 | 0 |
| 08/30 20:00 | 42 | 46 | 100 | 92 | 3 | 6 | 10 | 164 | 0.00 | 0.82 | 32.6 | 6.3 | 9 |
| 08/30 19:00 | 42 | 46 | 100 | 90 | 5 | 8 | 11 | 166 | 0.00 | 0.82 | 32.3 | 6.1 | 58 |
| 08/30 18:00 | 42 | 47 | 100 | 86 | 2 | 6 | 9 | 163 | 0.00 | 0.82 | 32.1 | 5.9 | 83 |
| 08/30 17:00 | 42 | 46 | 100 | 86 | 4 | 7 | 10 | 175 | 0.00 | 0.82 | 32.0 | 5.2 | 82 |
| 08/30 16:00 | 42 | 46 | 100 | 87 | 4 | 7 | 11 | 162 | 0.00 | 0.82 | 44.6 | 5.4 | 112 |
| 08/30 15:00 | 41 | 45 | 100 | 90 | 6 | 9 | 11 | 160 | 0.00 | 0.82 | 32.6 | 5.3 | 116 |
| 08/30 14:00 | 42 | 46 | 100 | 88 | 6 | 8 | 11 | 155 | 0.00 | 0.82 | 32.7 | 5.9 | 209 |
| 08/30 13:00 | 41 | 46 | 100 | 90 | 4 | 7 | 11 | 169 | 0.00 | 0.82 | 30.9 | 7.3 | 295 |
| 08/30 12:00 | 41 | 45 | 100 | 91 | 4 | 6 | 9 | 179 | 0.00 | 0.82 | 32.5 | 8.3 | 245 |
| 08/30 11:00 | 40 | 46 | 100 | 88 | 3 | 5 | 8 | 185 | 0.00 | 0.82 | 32.7 | 8.9 | 187 |
| 08/30 10:00 | 40 | 43 | 100 | 95 | 2 | 6 | 8 | 201 | 0.00 | 0.82 | 33.2 | 9.0 | 202 |
| 08/30 09:00 | 39 | 42 | 100 | 99 | 4 | 6 | 8 | 189 | 0.00 | 0.82 | 33.6 | 9.3 | 81 |
| 08/30 08:00 | 39 | 42 | 100 | 99 | 3 | 5 | 8 | 190 | 0.00 | 0.82 | 33.5 | 8.8 | 39 |
| 08/30 07:00 | 39 | 42 | 100 | 100 | 2 | 5 | 6 | 179 | 0.01 | 0.82 | 34.2 | 8.9 | 3 |
| 08/30 06:00 | 39 | 42 | 100 | 100 | 2 | 5 | 8 | 194 | 0.00 | 0.81 | 33.9 | 5.9 | 0 |
| 08/30 05:00 | 39 | 42 | 100 | 99 | 3 | 6 | 8 | 186 | 0.00 | 0.81 | 34.1 | 6.4 | 0 |
| 08/30 04:00 | 39 | 42 | 100 | 98 | 2 | 6 | 11 | 187 | 0.00 | 0.81 | 34.5 | 5.9 | 0 |
| 08/30 03:00 | 39 | 42 | 100 | 99 | 3 | 7 | 11 | 197 | 0.00 | 0.81 | 35.1 | 6.5 | 0 |
| 08/30 02:00 | 39 | 42 | 100 | 99 | 2 | 6 | 9 | 191 | 0.00 | 0.81 | 35.1 | 6.5 | 0 |
| 08/30 01:00 | 39 | 42 | 99 | 98 | 2 | 6 | 9 | 184 | 0.00 | 0.81 | 35.2 | 6.6 | 0 |
| 08/30 00:00 | 39 | 43 | 98 | 97 | 2 | 7 | 13 | 187 | 0.00 | 0.81 | 35.7 | 6.7 | 0 |
| 08/29 23:00 | 40 | 43 | 97 | 93 | 6 | 9 | 13 | 177 | 0.00 | 0.81 | 35.7 | 6.3 | 0 |
| 08/29 22:00 | 40 | 43 | 95 | 90 | 5 | 11 | 17 | 174 | 0.00 | 0.81 | 36.2 | 6.8 | 0 |
| 08/29 21:00 | 40 | 44 | 94 | 89 | 4 | 8 | 13 | 188 | 0.00 | 0.81 | 36.5 | 6.7 | 0 |
| 08/29 20:00 | 41 | 45 | 94 | 90 | 1 | 5 | 9 | 196 | 0.00 | 0.81 | 36.7 | 6.8 | 6 |
| 08/29 19:00 | 42 | 45 | 88 | 88 | 1 | 6 | 12 | 197 | 0.00 | 0.81 | 36.5 | 7.5 | 44 |
| 08/29 18:00 | 42 | 47 | 92 | 90 | 0 | 5 | 11 | 201 | 0.00 | 0.81 | 35.0 | 7.4 | 124 |
| 08/29 17:00 | 43 | 49 | 87 | 83 | 1 | 5 | 11 | 233 | 0.00 | 0.81 | 34.1 | 8.0 | 315 |
| 08/29 16:00 | 45 | 48 | 75 | 90 | 1 | 5 | 14 | 308 | 0.00 | 0.81 | 34.7 | 8.6 | 519 |
| 08/29 15:00 | 44 | 46 | 88 | 96 | 0 | 3 | 11 | 58 | 0.00 | 0.81 | 35.3 | 8.8 | 468 |
| 08/29 14:00 | 43 | 46 | 92 | 93 | 1 | 7 | 16 | 313 | 0.00 | 0.81 | 35.7 | 8.5 | 351 |
| 08/29 13:00 | 42 | 45 | 93 | 97 | 1 | 5 | 13 | 310 | 0.03 | 0.81 | 36.3 | 8.3 | 190 |
| 08/29 12:00 | 41 | 44 | 94 | 93 | 0 | 5 | 13 | 339 | 0.13 | 0.78 | 36.9 | 7.9 | 182 |
| 08/29 11:00 | 41 | 44 | 96 | 98 | 0 | 3 | 7 | 92 | 0.01 | 0.65 | 36.9 | 8.1 | 174 |
| 08/29 10:00 | 40 | 44 | 96 | 97 | 0 | 3 | 6 | 86 | 0.00 | 0.64 | 37.6 | 7.8 | 130 |
| 08/29 09:00 | 41 | 44 | 94 | 95 | 0 | 0 | 6 | 26 | 0.02 | 0.64 | 37.8 | 7.8 | 135 |
| 08/29 08:00 | 40 | 43 | 95 | 99 | 0 | 5 | 11 | 33 | 0.05 | 0.62 | 38.5 | 7.4 | 40 |
| 08/29 07:00 | 40 | 43 | 94 | 98 | 0 | 1 | 4 | 59 | 0.02 | 0.57 | 39.7 | 6.9 | 18 |
| 08/29 06:00 | 40 | 43 | 87 | 95 | 0 | 2 | 4 | 59 | 0.01 | 0.55 | 40.0 | 7.2 | 0 |
| 08/29 05:00 | 40 | 43 | 95 | 95 | 0 | 1 | 5 | 89 | 0.00 | 0.54 | 40.4 | 7.1 | 0 |
| 08/29 04:00 | 40 | 44 | 95 | 98 | 1 | 4 | 13 | 90 | 0.04 | 0.54 | 40.3 | 7.2 | 0 |
| 08/29 03:00 | 41 | 45 | 95 | 95 | 1 | 5 | 14 | 263 | 0.30 | 0.50 | 40.6 | 6.8 | 0 |
| 08/29 02:00 | 43 | 45 | 96 | 95 | 1 | 7 | 13 | 212 | 0.09 | 0.20 | 41.6 | 7.9 | 0 |
| 08/29 01:00 | 43 | 46 | 95 | 94 | 0 | 5 | 15 | 177 | 0.05 | 0.11 | 41.1 | 8.5 | 0 |
| 08/29 00:00 | 43 | 47 | 94 | 88 | 4 | 10 | 17 | 167 | 0.00 | 0.06 | 41.7 | 6.7 | 0 |
| 08/28 23:00 | 44 | 47 | 94 | 88 | 0 | 9 | 16 | 171 | 0.00 | 0.06 | 42.4 | 6.8 | 0 |
| 08/28 22:00 | – | 48 | – | 86 | – | – | – | – | 0.00 | 0.06 | 42.3 | 6.5 | – |
| 08/28 21:00 | – | 49 | – | 85 | – | – | – | – | 0.00 | 0.06 | 42.7 | 6.5 | – |
| 08/28 20:00 | – | 49 | – | 88 | – | – | – | – | 0.00 | 0.06 | 55.1 | 6.1 | – |
| 08/28 19:00 | – | 51 | – | 85 | – | – | – | – | 0.00 | 0.06 | 55.5 | 6.0 | – |
| 08/28 18:00 | 47 | 52 | 92 | 82 | 0 | 7 | 16 | 182 | 0.00 | 0.06 | 55.6 | 5.8 | 90 |
| 08/28 17:00 | 47 | 52 | 88 | 79 | 4 | 9 | 15 | 189 | 0.00 | 0.06 | 55.7 | 6.5 | 153 |
| 08/28 16:00 | 48 | 54 | 82 | 68 | 6 | 11 | 16 | 190 | 0.00 | 0.06 | 40.0 | 7.0 | 419 |
| 08/28 15:00 | 49 | 54 | 82 | 67 | 5 | 10 | 14 | 180 | 0.00 | 0.06 | 38.8 | 6.8 | 666 |
| 08/28 14:00 | 47 | 52 | 88 | 75 | 7 | 11 | 16 | 156 | 0.00 | 0.06 | 38.6 | 6.9 | 426 |
| 08/28 13:00 | 45 | 51 | 92 | 77 | 6 | 11 | 17 | 165 | 0.00 | 0.06 | 38.3 | 6.1 | 438 |
| 08/28 12:00 | 44 | 50 | 95 | 83 | 6 | 11 | 15 | 163 | 0.00 | 0.06 | 37.2 | 5.3 | 322 |
| 08/28 11:00 | 44 | 49 | 95 | 84 | 6 | 10 | 16 | 162 | 0.00 | 0.06 | 36.8 | 5.2 | 280 |
| 08/28 10:00 | 44 | 50 | 95 | 82 | 6 | 9 | 12 | 184 | 0.00 | 0.06 | 37.7 | 7.2 | 316 |
| 08/28 09:00 | 43 | 48 | 96 | 85 | 5 | 9 | 12 | 180 | 0.00 | 0.06 | 38.4 | 8.5 | 117 |
| 08/28 08:00 | 43 | 48 | 96 | 86 | 4 | 8 | 12 | 174 | 0.00 | 0.06 | 38.7 | 8.9 | 127 |
| 08/28 07:00 | 43 | 47 | 99 | 88 | 6 | 10 | 13 | 168 | 0.00 | 0.06 | 39.8 | 8.8 | 30 |
| 08/28 06:00 | 43 | 47 | 100 | 90 | 7 | 11 | 18 | 187 | 0.00 | 0.06 | 39.3 | 8.9 | 0 |
| 08/28 05:00 | 44 | 48 | 99 | 91 | 6 | 9 | 13 | 175 | 0.00 | 0.06 | 40.0 | 8.5 | 0 |
| 08/28 04:00 | 45 | 48 | 98 | 92 | 5 | 9 | 15 | 193 | 0.00 | 0.06 | 40.4 | 8.9 | 0 |
| 08/28 03:00 | 45 | 48 | 97 | 89 | 3 | 7 | 11 | 174 | 0.00 | 0.06 | 41.1 | 8.9 | 0 |
| 08/28 02:00 | 45 | 49 | 96 | 88 | 7 | 11 | 18 | 169 | 0.00 | 0.06 | 40.9 | 8.5 | 0 |
| 08/28 01:00 | 45 | 49 | 97 | 89 | 6 | 13 | 20 | 168 | 0.00 | 0.06 | 40.9 | 8.2 | 0 |
| 08/28 00:00 | 46 | 49 | 97 | 90 | 6 | 13 | 20 | 155 | 0.01 | 0.06 | 41.6 | 8.7 | 0 |
| 08/27 23:00 | 46 | 49 | 100 | 91 | 6 | 12 | 17 | 175 | 0.00 | 0.05 | 42.0 | 9.1 | 0 |
| 08/27 22:00 | 46 | 49 | 99 | 90 | 6 | 12 | 18 | 174 | 0.01 | 0.05 | 42.9 | 8.6 | 0 |
| 08/27 21:00 | 46 | 50 | 98 | 90 | 9 | 14 | 23 | 165 | 0.00 | 0.04 | 43.7 | 9.0 | 0 |
| 08/27 20:00 | 46 | 50 | 96 | 91 | 8 | 14 | 25 | 164 | 0.02 | 0.04 | 45.3 | 8.6 | 4 |
| 08/27 19:00 | 46 | 50 | 95 | 89 | 7 | 15 | 25 | 180 | 0.00 | 0.02 | 47.8 | 8.1 | 30 |
| 08/27 18:00 | 46 | 50 | 95 | 87 | 11 | 16 | 22 | 180 | 0.01 | 0.02 | 50.3 | 8.2 | 39 |
| 08/27 17:00 | 46 | 50 | 94 | 88 | 8 | 18 | 27 | 172 | 0.01 | 0.01 | 51.9 | 7.1 | 66 |
| 08/27 16:00 | 46 | 51 | 94 | 83 | 11 | 20 | 30 | 186 | 0.00 | 0.00 | 54.3 | 5.0 | 83 |
| 08/27 15:00 | 47 | 52 | 84 | 76 | 12 | 22 | 33 | 186 | 0.00 | 0.00 | 53.9 | 6.9 | 258 |
| 08/27 14:00 | 48 | 53 | 78 | 69 | 10 | 19 | 31 | 187 | 0.00 | 0.00 | 54.3 | 6.7 | 208 |
| 08/27 13:00 | 50 | 54 | 66 | 60 | 5 | 18 | 30 | 185 | 0.00 | 0.00 | 53.6 | 6.8 | 320 |
| 08/27 12:00 | 51 | 54 | 61 | 54 | 12 | 22 | 32 | 185 | 0.00 | 0.00 | 49.7 | 7.0 | 639 |
| 08/27 11:00 | 48 | 52 | 76 | 68 | 13 | 26 | 42 | 189 | 0.00 | 0.00 | 49.7 | 6.9 | 335 |
| 08/27 10:00 | 47 | 52 | 87 | 77 | 13 | 23 | 32 | 180 | 0.00 | 0.00 | 50.1 | 6.6 | 176 |
| 08/27 09:00 | 47 | 50 | 91 | 84 | 11 | 21 | 32 | 174 | 0.00 | 0.00 | 65.5 | 6.6 | 62 |
| 08/27 08:00 | 46 | 51 | 94 | 84 | 11 | 15 | 22 | 192 | 0.00 | 0.00 | 54.7 | 6.3 | 41 |
| 08/27 07:00 | 47 | 51 | 93 | 83 | 2 | 7 | 18 | 242 | 0.00 | 0.00 | 62.6 | 6.5 | 6 |
| 08/27 06:00 | 48 | 52 | 90 | 79 | 3 | 8 | 16 | 233 | 0.00 | 0.00 | 71.2 | 6.3 | 0 |
| 08/27 05:00 | 48 | 52 | 88 | 79 | 3 | 8 | 14 | 209 | 0.00 | 0.00 | 73.0 | 6.5 | 0 |
| 08/27 04:00 | 50 | 54 | 82 | 73 | 3 | 11 | 24 | 204 | 0.00 | 0.00 | 74.2 | 6.6 | 0 |
| 08/27 03:00 | 52 | 56 | 76 | 71 | 8 | 16 | 26 | 192 | 0.00 | 0.00 | 75.8 | 6.5 | 0 |
| 08/27 02:00 | 52 | 56 | 77 | 69 | 8 | 18 | 30 | 185 | 0.00 | 0.00 | 77.3 | 6.6 | 0 |
| 08/27 01:00 | 53 | 56 | 73 | 67 | 5 | 16 | 25 | 174 | 0.00 | 0.00 | 78.5 | 6.7 | 0 |
| 08/27 00:00 | 53 | 57 | 71 | 66 | 5 | 15 | 25 | 184 | 0.00 | 0.00 | 79.7 | 6.8 | 0 |
| 08/26 23:00 | 54 | 58 | 68 | 62 | 6 | 14 | 25 | 183 | 0.00 | 0.00 | 81.0 | 6.9 | 0 |
| 08/26 22:00 | 55 | 59 | 62 | 58 | 8 | 16 | 25 | 180 | 0.00 | 0.00 | 68.8 | 6.8 | 0 |
| 08/26 21:00 | 56 | 60 | 58 | 55 | 9 | 18 | 29 | 179 | 0.00 | 0.00 | 70.1 | 6.8 | 0 |
| 08/26 20:00 | 57 | 60 | 52 | 49 | 12 | 21 | 28 | 186 | 0.00 | 0.00 | 72.2 | 7.0 | 56 |
| 08/26 19:00 | 58 | 62 | 46 | 45 | 15 | 23 | 35 | 185 | 0.00 | 0.00 | 72.6 | 7.2 | 212 |
| 08/26 18:00 | 60 | 64 | 37 | 35 | 13 | 25 | 34 | 190 | 0.00 | 0.00 | 67.8 | 7.6 | 382 |
| 08/26 17:00 | 61 | 66 | 35 | 32 | 16 | 22 | 30 | 192 | 0.00 | 0.00 | 63.0 | 7.3 | 582 |
| 08/26 16:00 | 61 | 66 | 57 | 51 | 11 | 18 | 27 | 193 | 0.00 | 0.00 | 59.1 | 7.6 | 738 |
| 08/26 15:00 | 62 | 67 | 63 | 55 | 6 | 11 | 17 | 180 | 0.00 | 0.00 | 70.7 | 7.8 | 795 |
| 08/26 14:00 | 63 | 67 | 60 | 55 | 6 | 10 | 15 | 161 | 0.00 | 0.00 | 69.8 | 8.1 | 834 |
| 08/26 13:00 | 64 | 70 | 56 | 48 | 6 | 8 | 12 | 164 | 0.00 | 0.00 | 60.6 | 8.3 | 809 |
| 08/26 12:00 | 65 | 69 | 50 | 48 | 5 | 7 | 11 | 166 | 0.00 | 0.00 | 53.5 | 8.0 | 736 |
| 08/26 11:00 | 67 | 65 | 39 | 58 | 4 | 7 | 11 | 184 | 0.00 | 0.00 | 55.4 | 8.0 | 629 |
| 08/26 10:00 | 62 | 65 | 48 | 52 | 5 | 8 | 12 | 167 | 0.00 | 0.00 | 57.1 | 7.2 | 327 |
| 08/26 09:00 | 61 | 64 | 50 | 53 | 6 | 10 | 13 | 150 | 0.00 | 0.00 | 70.2 | 7.3 | 312 |
| 08/26 08:00 | 60 | 59 | 46 | 61 | 6 | 9 | 13 | 149 | 0.00 | 0.00 | 74.7 | 7.6 | 130 |
| 08/26 07:00 | 59 | 55 | 52 | 68 | 3 | 6 | 9 | 160 | 0.00 | 0.00 | 77.6 | 7.4 | 13 |
| 08/26 06:00 | 57 | 55 | 60 | 68 | 4 | 7 | 12 | 162 | 0.00 | 0.00 | 71.4 | 7.1 | 0 |
| 08/26 05:00 | 58 | 57 | 55 | 62 | 3 | 7 | 11 | 174 | 0.00 | 0.00 | 70.7 | 7.1 | 0 |
| 08/26 04:00 | 58 | 59 | 61 | 62 | 2 | 9 | 10 | 182 | 0.00 | 0.00 | 64.6 | 6.8 | 0 |
| 08/26 03:00 | 59 | 59 | 58 | 61 | 6 | 9 | 11 | 182 | 0.00 | 0.00 | 76.8 | 6.9 | 0 |
| 08/26 02:00 | 59 | 62 | 56 | 54 | 6 | 9 | 11 | 183 | 0.00 | 0.00 | 77.4 | 6.9 | 0 |
| 08/26 01:00 | 59 | 62 | 59 | 58 | 6 | 10 | 13 | 180 | 0.00 | 0.00 | 79.4 | 6.9 | 0 |
| 08/26 00:00 | 60 | 62 | 57 | 58 | 8 | 14 | 20 | 168 | 0.00 | 0.00 | 80.6 | 7.0 | 0 |
| 08/25 23:00 | 60 | 63 | 57 | 55 | 10 | 16 | 22 | 171 | 0.00 | 0.00 | 81.1 | 6.8 | 0 |
| 08/25 22:00 | 60 | 64 | 57 | 53 | 10 | 16 | 23 | 178 | 0.00 | 0.00 | 82.4 | 7.3 | 0 |
| 08/25 21:00 | 61 | 64 | 58 | 55 | 10 | 16 | 25 | 168 | 0.00 | 0.00 | 83.3 | 7.2 | 0 |
| 08/25 20:00 | 63 | 66 | 57 | 55 | 11 | 18 | 25 | 169 | 0.00 | 0.00 | 84.0 | 7.5 | 36 |
| 08/25 19:00 | 65 | 69 | 55 | 54 | 10 | 15 | 23 | 173 | 0.00 | 0.00 | 83.8 | 8.1 | 158 |
| 08/25 18:00 | 69 | 74 | 36 | 35 | 1 | 7 | 18 | 198 | 0.00 | 0.00 | 64.6 | 8.5 | 308 |
| 08/25 17:00 | 74 | 79 | 24 | 23 | 4 | 9 | 14 | 198 | 0.00 | 0.00 | 62.3 | 8.5 | 537 |
| 08/25 16:00 | 74 | 79 | 21 | 19 | 4 | 9 | 17 | 198 | 0.00 | 0.00 | 60.4 | 8.7 | 685 |
| 08/25 15:00 | 74 | 79 | 24 | 23 | 2 | 8 | 16 | 185 | 0.00 | 0.00 | 59.2 | 8.7 | 774 |
| 08/25 14:00 | 72 | 78 | 27 | 25 | 4 | 10 | 18 | 187 | 0.00 | 0.00 | 57.6 | 8.3 | 798 |
| 08/25 13:00 | 71 | 76 | 29 | 26 | 8 | 13 | 20 | 183 | 0.00 | 0.00 | 56.6 | 8.6 | 791 |
| 08/25 12:00 | 70 | 75 | 29 | 27 | 4 | 9 | 16 | 172 | 0.00 | 0.00 | 53.0 | 8.4 | 750 |
| 08/25 11:00 | 70 | 73 | 29 | 28 | 4 | 9 | 14 | 177 | 0.00 | 0.00 | 52.8 | 8.0 | 642 |
| 08/25 10:00 | 69 | 71 | 31 | 30 | 3 | 8 | 13 | 166 | 0.00 | 0.00 | 52.9 | 8.3 | 492 |
| 08/25 09:00 | 67 | 69 | 31 | 31 | 2 | 6 | 9 | 144 | 0.00 | 0.00 | 51.8 | 8.0 | 311 |
| 08/25 08:00 | 65 | 66 | 32 | 36 | 5 | 9 | 13 | 160 | 0.00 | 0.00 | 53.1 | 7.7 | 132 |
| 08/25 07:00 | 64 | 64 | 36 | 40 | 5 | 9 | 15 | 187 | 0.00 | 0.00 | 53.7 | 7.2 | 15 |
| 08/25 06:00 | 63 | 64 | 42 | 43 | 1 | 5 | 8 | 186 | 0.00 | 0.00 | 53.3 | 7.6 | 0 |
| 08/25 05:00 | 63 | 63 | 43 | 48 | 0 | 5 | 9 | 178 | 0.00 | 0.00 | 52.3 | 7.2 | 0 |
| 08/25 04:00 | 64 | 64 | 42 | 48 | 4 | 7 | 10 | 157 | 0.00 | 0.00 | 52.0 | 7.6 | 0 |
| 08/25 03:00 | 65 | 64 | 42 | 49 | 6 | 8 | 11 | 162 | 0.00 | 0.00 | 52.3 | 7.5 | 0 |
| 08/25 02:00 | 65 | 62 | 40 | 52 | 5 | 6 | 9 | 164 | 0.00 | 0.00 | 59.6 | 7.2 | 0 |
| 08/25 01:00 | 66 | 63 | 40 | 51 | 1 | 6 | 8 | 162 | 0.00 | 0.00 | 66.2 | 7.0 | 0 |
| 08/25 00:00 | 65 | 63 | 41 | 50 | 0 | 4 | 7 | 185 | 0.00 | 0.00 | 65.7 | 7.1 | 0 |
| 08/24 23:00 | 65 | 63 | 42 | 51 | 3 | 5 | 8 | 189 | 0.00 | 0.00 | 54.2 | 7.2 | 0 |
| 08/24 22:00 | 66 | 62 | 39 | 57 | 0 | 2 | 6 | 26 | 0.00 | 0.00 | 68.0 | 7.1 | 0 |
| 08/24 21:00 | 64 | 62 | 50 | 61 | 0 | 2 | 5 | 22 | 0.00 | 0.00 | 68.9 | 7.4 | 0 |

